createdAt,value
2023-01-17T00:01:12.982Z,98366.53
2023-01-17T00:03:57.888Z,98371.06
2023-01-17T00:06:43.858Z,98367.59
2023-01-17T00:09:30.116Z,98372.97
2023-01-17T00:11:57.566Z,98375.66
2023-01-17T00:14:24.003Z,98383.69
2023-01-17T00:16:50.409Z,98385.28
2023-01-17T00:19:35.961Z,98382.34
2023-01-17T00:22:27.267Z,98390.13
2023-01-17T00:25:12.140Z,98393.09
2023-01-17T00:27:38.506Z,98404.63
2023-01-17T00:30:05.481Z,98403.03
2023-01-17T00:32:31.820Z,98402.56
2023-01-17T00:34:58.151Z,98411.09
2023-01-17T00:37:24.474Z,98418.34
2023-01-17T00:39:50.817Z,98417.31
2023-01-17T00:42:17.141Z,98413.31
2023-01-17T00:45:01.890Z,98434.00
2023-01-17T00:47:46.743Z,98434.28
2023-01-17T00:50:31.799Z,98445.28
2023-01-17T00:53:22.579Z,98448.81
2023-01-17T00:56:07.466Z,98470.53
2023-01-17T00:58:52.620Z,98475.72
2023-01-17T01:01:37.667Z,98476.88
2023-01-17T01:04:22.631Z,98469.41
2023-01-17T01:07:07.427Z,98472.13
2023-01-17T01:09:52.066Z,98475.88
2023-01-17T01:12:36.773Z,98468.16
2023-01-17T01:15:21.467Z,98460.38
2023-01-17T01:18:06.201Z,98471.09
2023-01-17T01:20:51.006Z,98486.63
2023-01-17T01:23:35.857Z,98491.72
2023-01-17T01:26:22.573Z,98488.75
2023-01-17T01:29:07.245Z,98490.63
2023-01-17T01:31:52.434Z,98499.47
2023-01-17T01:34:18.926Z,98506.97
2023-01-17T01:36:45.334Z,98510.72
2023-01-17T01:39:11.793Z,98498.16
2023-01-17T01:41:38.162Z,98500.56
2023-01-17T01:44:04.857Z,98515.03
2023-01-17T01:46:39.509Z,98514.50
2023-01-17T01:49:17.433Z,98515.34
2023-01-17T01:51:49.157Z,98516.69
2023-01-17T01:54:20.417Z,98522.06
2023-01-17T01:56:50.052Z,98524.50
2023-01-17T01:59:19.951Z,98529.03
2023-01-17T02:01:48.154Z,98533.88
2023-01-17T02:04:15.178Z,98537.91
2023-01-17T02:06:45.997Z,98549.97
2023-01-17T02:09:15.170Z,98551.56
2023-01-17T02:11:41.856Z,98559.59
2023-01-17T02:14:08.852Z,98564.97
2023-01-17T02:17:06.029Z,98583.69
2023-01-17T02:20:05.119Z,98594.91
2023-01-17T02:22:56.105Z,98602.41
2023-01-17T02:25:25.480Z,98602.13
2023-01-17T02:28:04.250Z,98602.94
2023-01-17T02:30:33.704Z,98610.44
2023-01-17T02:33:09.373Z,98600.00
2023-01-17T02:35:49.984Z,98598.66
2023-01-17T02:38:37.048Z,98591.44
2023-01-17T02:41:13.675Z,98589.84
2023-01-17T02:43:40.509Z,98599.75
2023-01-17T02:46:08.887Z,98601.09
2023-01-17T02:48:36.987Z,98598.94
2023-01-17T02:51:18.649Z,98608.03
2023-01-17T02:54:19.436Z,98608.84
2023-01-17T02:57:06.737Z,98611.53
2023-01-17T02:59:55.729Z,98616.34
2023-01-17T03:02:31.095Z,98609.94
2023-01-17T03:05:04.915Z,98617.44
2023-01-17T03:07:33.016Z,98622.78
2023-01-17T03:10:03.577Z,98619.56
2023-01-17T03:12:32.200Z,98625.47
2023-01-17T03:14:58.675Z,98616.91
2023-01-17T03:17:30.344Z,98622.78
2023-01-17T03:19:56.730Z,98627.59
2023-01-17T03:22:23.221Z,98626.00
2023-01-17T03:24:50.259Z,98629.75
2023-01-17T03:27:16.624Z,98635.88
2023-01-17T03:29:42.985Z,98632.44
2023-01-17T03:32:09.364Z,98642.59
2023-01-17T03:34:35.729Z,98642.06
2023-01-17T03:37:02.076Z,98643.66
2023-01-17T03:39:28.507Z,98645.25
2023-01-17T03:41:54.946Z,98639.09
2023-01-17T03:44:21.324Z,98654.34
2023-01-17T03:46:47.680Z,98656.22
2023-01-17T03:49:14.040Z,98657.56
2023-01-17T03:51:40.396Z,98657.56
2023-01-17T03:54:06.789Z,98659.44
2023-01-17T03:56:33.185Z,98657.56
2023-01-17T03:58:59.542Z,98660.25
2023-01-17T04:01:26.054Z,98661.06
2023-01-17T04:03:52.607Z,98655.97
2023-01-17T04:06:18.970Z,98661.84
2023-01-17T04:08:45.339Z,98664.25
2023-01-17T04:11:11.685Z,98666.13
2023-01-17T04:13:38.028Z,98674.41
2023-01-17T04:16:04.881Z,98675.50
2023-01-17T04:18:31.238Z,98675.47
2023-01-17T04:20:57.679Z,98679.75
2023-01-17T04:23:24.159Z,98691.50
2023-01-17T04:25:50.648Z,98692.81
2023-01-17T04:28:17.088Z,98701.38
2023-01-17T04:30:43.464Z,98687.47
2023-01-17T04:33:09.839Z,98687.75
2023-01-17T04:35:36.229Z,98685.09
2023-01-17T04:38:03.178Z,98684.53
2023-01-17T04:40:29.657Z,98685.34
2023-01-17T04:42:57.775Z,98674.09
2023-01-17T04:45:24.171Z,98673.03
2023-01-17T04:47:50.566Z,98676.78
2023-01-17T04:50:17.598Z,98682.66
2023-01-17T04:52:44.158Z,98674.63
2023-01-17T04:55:10.580Z,98671.97
2023-01-17T04:57:36.946Z,98674.63
2023-01-17T05:00:04.515Z,98669.81
2023-01-17T05:02:31.002Z,98676.75
2023-01-17T05:04:57.354Z,98677.59
2023-01-17T05:07:23.711Z,98678.38
2023-01-17T05:09:50.080Z,98685.31
2023-01-17T05:12:16.459Z,98686.38
2023-01-17T05:14:42.849Z,98686.94
2023-01-17T05:17:11.135Z,98688.00
2023-01-17T05:19:37.676Z,98693.63
2023-01-17T05:22:14.736Z,98689.03
2023-01-17T05:24:42.982Z,98691.72
2023-01-17T05:27:09.614Z,98696.00
2023-01-17T05:29:36.164Z,98702.94
2023-01-17T05:32:02.872Z,98698.66
2023-01-17T05:34:29.265Z,98699.19
2023-01-17T05:36:55.829Z,98697.03
2023-01-17T05:39:22.316Z,98695.44
2023-01-17T05:41:48.668Z,98698.91
2023-01-17T05:44:18.028Z,98698.63
2023-01-17T05:46:44.409Z,98705.03
2023-01-17T05:49:10.862Z,98711.44
2023-01-17T05:51:39.440Z,98715.97
2023-01-17T05:54:06.092Z,98711.97
2023-01-17T05:56:33.234Z,98722.66
2023-01-17T05:59:00.148Z,98724.50
2023-01-17T06:01:26.525Z,98726.91
2023-01-17T06:03:52.891Z,98733.84
2023-01-17T06:06:19.236Z,98721.81
2023-01-17T06:08:45.596Z,98733.84
2023-01-17T06:11:11.988Z,98737.03
2023-01-17T06:13:38.360Z,98729.56
2023-01-17T06:16:04.926Z,98739.44
2023-01-17T06:18:31.929Z,98741.31
2023-01-17T06:20:58.647Z,98741.88
2023-01-17T06:23:25.492Z,98743.47
2023-01-17T06:25:52.486Z,98760.59
2023-01-17T06:28:21.718Z,98756.88
2023-01-17T06:30:48.830Z,98746.19
2023-01-17T06:33:15.671Z,98748.59
2023-01-17T06:35:50.423Z,98745.16
2023-01-17T06:38:18.138Z,98739.28
2023-01-17T06:44:31.860Z,98740.38
2023-01-17T06:46:58.454Z,98745.72
2023-01-17T06:49:25.984Z,98736.88
2023-01-17T06:51:52.458Z,98744.09
2023-01-17T06:54:20.869Z,98741.69
2023-01-17T06:57:00.389Z,98749.97
2023-01-17T06:59:26.778Z,98751.03
2023-01-17T07:01:58.435Z,98759.84
2023-01-17T07:04:24.861Z,98752.09
2023-01-17T07:06:54.333Z,98757.97
2023-01-17T07:09:20.776Z,98761.41
2023-01-17T07:11:47.145Z,98759.53
2023-01-17T07:14:14.527Z,98757.41
2023-01-17T07:17:00.147Z,98756.34
2023-01-17T07:19:26.524Z,98761.66
2023-01-17T07:21:58.965Z,98762.72
2023-01-17T07:24:25.313Z,98763.78
2023-01-17T07:26:59.813Z,98768.03
2023-01-17T07:29:26.206Z,98764.53
2023-01-17T07:31:52.579Z,98764.00
2023-01-17T07:34:18.959Z,98765.59
2023-01-17T07:36:45.436Z,98770.94
2023-01-17T07:39:12.027Z,98763.22
2023-01-17T07:41:41.259Z,98772.28
2023-01-17T07:44:10.225Z,98771.47
2023-01-17T07:46:38.738Z,98768.25
2023-01-17T07:49:44.594Z,98763.41
2023-01-17T07:52:11.084Z,98770.09
2023-01-17T07:54:39.565Z,98766.88
2023-01-17T07:57:06.126Z,98776.22
2023-01-17T07:59:45.688Z,98771.41
2023-01-17T08:02:19.457Z,98773.84
2023-01-17T08:05:16.776Z,98780.22
2023-01-17T08:07:43.160Z,98774.34
2023-01-17T08:10:13.128Z,98775.94
2023-01-17T08:12:39.512Z,98777.28
2023-01-17T08:15:06.531Z,98773.31
2023-01-17T08:17:57.529Z,98781.31
2023-01-17T08:20:27.549Z,98778.66
2023-01-17T08:22:56.054Z,98786.13
2023-01-17T08:25:26.249Z,98792.25
2023-01-17T08:27:56.910Z,98793.31
2023-01-17T08:30:23.977Z,98794.13
2023-01-17T08:32:50.403Z,98797.59
2023-01-17T08:35:57.498Z,98795.75
2023-01-17T08:38:43.145Z,98798.94
2023-01-17T08:41:09.566Z,98796.28
2023-01-17T08:43:36.025Z,98805.38
2023-01-17T08:46:02.463Z,98803.50
2023-01-17T08:48:34.971Z,98803.00
2023-01-17T08:51:02.515Z,98804.88
2023-01-17T08:53:30.171Z,98808.31
2023-01-17T08:56:02.160Z,98807.53
2023-01-17T08:58:30.821Z,98808.09
2023-01-17T09:01:06.045Z,98812.38
2023-01-17T09:03:34.093Z,98811.28
2023-01-17T09:06:12.589Z,98819.00
2023-01-17T09:08:39.701Z,98814.75
2023-01-17T09:11:12.997Z,98822.00
2023-01-17T09:13:39.535Z,98822.59
2023-01-17T09:16:06.568Z,98822.84
2023-01-17T09:18:35.881Z,98829.00
2023-01-17T09:21:18.159Z,98833.00
2023-01-17T09:23:44.906Z,98831.38
2023-01-17T09:26:22.789Z,98835.41
2023-01-17T09:28:49.397Z,98833.28
2023-01-17T09:31:17.566Z,98841.31
2023-01-17T09:33:44.371Z,98838.66
2023-01-17T09:36:11.377Z,98849.34
2023-01-17T09:38:38.173Z,98846.94
2023-01-17T09:41:21.960Z,98845.63
2023-01-17T09:43:56.847Z,98848.03
2023-01-17T09:46:28.652Z,98849.09
2023-01-17T09:49:13.003Z,98850.72
2023-01-17T09:51:39.580Z,98854.19
2023-01-17T09:54:18.975Z,98860.06
2023-01-17T09:56:53.027Z,98863.03
2023-01-17T09:59:35.354Z,98859.03
2023-01-17T10:02:28.345Z,98863.06
2023-01-17T10:05:07.073Z,98870.28
2023-01-17T10:08:19.257Z,98873.50
2023-01-17T10:11:23.303Z,98870.84
2023-01-17T10:14:19.969Z,98858.00
2023-01-17T10:17:02.230Z,98861.53
2023-01-17T10:19:41.025Z,98868.22
2023-01-17T10:22:17.159Z,98868.28
2023-01-17T10:24:54.572Z,98863.78
2023-01-17T10:27:57.908Z,98863.81
2023-01-17T10:30:33.666Z,98861.16
2023-01-17T10:33:14.911Z,98865.75
2023-01-17T10:35:51.653Z,98861.97
2023-01-17T10:38:19.483Z,98869.47
2023-01-17T10:40:54.818Z,98867.31
2023-01-17T10:43:45.521Z,98873.22
2023-01-17T10:46:19.999Z,98873.22
2023-01-17T10:48:49.618Z,98878.28
2023-01-17T10:51:26.822Z,98873.75
2023-01-17T10:54:18.267Z,98869.72
2023-01-17T10:56:44.709Z,98872.16
2023-01-17T10:59:32.118Z,98874.56
2023-01-17T11:02:23.696Z,98876.44
2023-01-17T11:04:54.536Z,98882.19
2023-01-17T11:07:24.403Z,98871.91
2023-01-17T11:10:36.705Z,98873.06
2023-01-17T11:13:26.960Z,98879.03
2023-01-17T11:15:57.701Z,98880.38
2023-01-17T11:18:28.945Z,98874.75
2023-01-17T11:21:11.286Z,98874.78
2023-01-17T11:23:40.703Z,98870.19
2023-01-17T11:26:11.134Z,98872.63
2023-01-17T11:28:40.030Z,98866.47
2023-01-17T11:31:34.167Z,98865.44
2023-01-17T11:34:15.484Z,98869.47
2023-01-17T11:36:42.442Z,98866.25
2023-01-17T11:39:27.568Z,98862.38
2023-01-17T11:41:54.508Z,98859.09
2023-01-17T11:44:28.846Z,98855.66
2023-01-17T11:47:13.591Z,98848.06
2023-01-17T11:49:41.894Z,98856.66
2023-01-17T11:52:10.378Z,98851.97
2023-01-17T11:54:40.263Z,98856.22
2023-01-17T11:57:31.421Z,98862.09
2023-01-17T12:00:28.473Z,98845.47
2023-01-17T12:03:15.096Z,98842.56
2023-01-17T12:05:55.269Z,98839.19
2023-01-17T12:08:41.445Z,98842.41
2023-01-17T12:11:22.034Z,98834.56
2023-01-17T12:14:15.686Z,98831.28
2023-01-17T12:16:44.985Z,98836.63
2023-01-17T12:19:23.375Z,98829.63
2023-01-17T12:22:22.878Z,98828.13
2023-01-17T12:25:25.935Z,98825.22
2023-01-17T12:28:08.695Z,98817.69
2023-01-17T12:30:52.070Z,98815.75
2023-01-17T12:33:27.843Z,98824.03
2023-01-17T12:36:02.075Z,98815.25
2023-01-17T12:38:40.672Z,98818.72
2023-01-17T12:41:16.777Z,98808.84
2023-01-17T12:43:44.766Z,98810.81
2023-01-17T12:46:27.098Z,98809.00
2023-01-17T12:49:25.914Z,98821.63
2023-01-17T12:52:29.951Z,98817.31
2023-01-17T12:55:02.355Z,98816.72
2023-01-17T12:58:07.905Z,98819.81
2023-01-17T13:00:48.977Z,98826.44
2023-01-17T13:03:52.439Z,98823.66
2023-01-17T13:06:45.709Z,98827.53
2023-01-17T13:09:17.048Z,98829.31
2023-01-17T13:11:52.730Z,98808.91
2023-01-17T13:14:19.188Z,98811.63
2023-01-17T13:16:58.613Z,98806.28
2023-01-17T13:19:42.613Z,98815.69
2023-01-17T13:22:17.342Z,98825.88
2023-01-17T13:25:12.810Z,98824.53
2023-01-17T13:27:47.288Z,98827.66
2023-01-17T13:30:43.376Z,98830.50
2023-01-17T13:33:40.291Z,98827.25
2023-01-17T13:36:17.933Z,98830.38
2023-01-17T13:39:02.485Z,98823.72
2023-01-17T13:41:36.887Z,98825.63
2023-01-17T13:44:22.936Z,98825.63
2023-01-17T13:47:26.012Z,98829.50
2023-01-17T13:49:56.747Z,98838.00
2023-01-17T13:52:26.223Z,98835.84
2023-01-17T13:54:57.881Z,98840.19
2023-01-17T13:57:29.903Z,98840.03
2023-01-17T14:00:28.540Z,98844.47
2023-01-17T14:02:55.680Z,98849.69
2023-01-17T14:05:42.052Z,98844.22
2023-01-17T14:08:18.906Z,98846.28
2023-01-17T14:10:49.521Z,98851.09
2023-01-17T14:13:34.805Z,98856.06
2023-01-17T14:16:02.802Z,98856.06
2023-01-17T14:18:40.636Z,98849.59
2023-01-17T14:21:19.013Z,98858.81
2023-01-17T14:24:03.918Z,98861.38
2023-01-17T14:26:37.512Z,98869.59
2023-01-17T14:29:41.595Z,98861.44
2023-01-17T14:32:14.195Z,98853.78
2023-01-17T14:34:41.035Z,98860.31
2023-01-17T14:37:20.265Z,98868.63
2023-01-17T14:39:49.530Z,98861.84
2023-01-17T14:42:20.292Z,98868.53
2023-01-17T14:44:56.685Z,98858.22
2023-01-17T14:47:23.242Z,98854.41
2023-01-17T14:50:08.654Z,98862.06
2023-01-17T14:52:35.068Z,98863.78
2023-01-17T14:55:14.484Z,98868.66
2023-01-17T14:57:40.931Z,98861.88
2023-01-17T15:00:10.941Z,98868.66
2023-01-17T15:02:41.943Z,98866.00
2023-01-17T15:05:13.114Z,98876.53
2023-01-17T15:07:40.132Z,98877.66
2023-01-17T15:10:12.848Z,98880.66
2023-01-17T15:12:39.362Z,98884.13
2023-01-17T15:15:26.882Z,98889.25
2023-01-17T15:18:13.269Z,98883.63
2023-01-17T15:20:41.769Z,98882.59
2023-01-17T15:23:21.549Z,98891.44
2023-01-17T15:25:50.740Z,98897.88
2023-01-17T15:28:18.233Z,98899.47
2023-01-17T15:31:06.782Z,98904.28
2023-01-17T15:33:34.649Z,98900.81
2023-01-17T15:36:21.238Z,98900.53
2023-01-17T15:38:59.495Z,98895.69
2023-01-17T15:41:38.077Z,98904.00
2023-01-17T15:44:05.370Z,98904.50
2023-01-17T15:46:42.057Z,98899.44
2023-01-17T15:49:19.177Z,98900.47
2023-01-17T15:51:50.518Z,98901.53
2023-01-17T15:54:34.488Z,98894.28
2023-01-17T15:57:20.234Z,98897.22
2023-01-17T16:00:06.983Z,98899.34
2023-01-17T16:02:55.763Z,98900.94
2023-01-17T16:05:22.815Z,98903.59
2023-01-17T16:07:56.452Z,98900.38
2023-01-17T16:10:28.529Z,98906.25
2023-01-17T16:12:56.177Z,98899.03
2023-01-17T16:15:23.630Z,98897.94
2023-01-17T16:18:04.379Z,98898.97
2023-01-17T16:20:35.895Z,98905.63
2023-01-17T16:23:02.641Z,98897.59
2023-01-17T16:25:32.455Z,98900.22
2023-01-17T16:27:59.811Z,98914.13
2023-01-17T16:30:26.717Z,98907.44
2023-01-17T16:32:53.141Z,98905.53
2023-01-17T16:35:22.455Z,98921.00
2023-01-17T16:37:51.353Z,98912.44
2023-01-17T16:40:20.047Z,98920.97
2023-01-17T16:42:47.336Z,98915.38
2023-01-17T16:45:14.673Z,98918.31
2023-01-17T16:47:42.706Z,98916.16
2023-01-17T16:50:11.440Z,98920.41
2023-01-17T16:52:38.345Z,98926.25
2023-01-17T16:55:12.371Z,98925.69
2023-01-17T16:57:40.148Z,98933.97
2023-01-17T17:00:07.279Z,98927.81
2023-01-17T17:02:33.836Z,98935.28
2023-01-17T17:05:00.405Z,98937.41
2023-01-17T17:07:26.818Z,98934.97
2023-01-17T17:09:53.198Z,98944.06
2023-01-17T17:12:19.611Z,98950.72
2023-01-17T17:14:45.989Z,98951.25
2023-01-17T17:17:12.440Z,98960.31
2023-01-17T17:19:38.812Z,98962.66
2023-01-17T17:22:09.442Z,98965.84
2023-01-17T17:24:35.917Z,98962.91
2023-01-17T17:27:02.263Z,98968.75
2023-01-17T17:29:28.628Z,98973.53
2023-01-17T17:31:54.999Z,98971.09
2023-01-17T17:34:27.608Z,98971.09
2023-01-17T17:36:59.106Z,98978.81
2023-01-17T17:39:25.491Z,98976.66
2023-01-17T17:41:56.418Z,98978.78
2023-01-17T17:44:22.806Z,98976.06
2023-01-17T17:46:59.299Z,98989.41
2023-01-17T17:49:36.838Z,98985.13
2023-01-17T17:52:08.888Z,99001.13
2023-01-17T17:54:35.558Z,98993.91
2023-01-17T17:57:05.211Z,99006.69
2023-01-17T17:59:32.903Z,99006.38
2023-01-17T18:02:10.767Z,99008.47
2023-01-17T18:04:43.750Z,99014.63
2023-01-17T18:07:10.220Z,99017.25
2023-01-17T18:09:36.679Z,99018.53
2023-01-17T18:12:36.201Z,99015.63
2023-01-17T18:15:09.860Z,99023.88
2023-01-17T18:17:58.855Z,99034.56
2023-01-17T18:20:28.338Z,99035.38
2023-01-17T18:22:54.672Z,99038.84
2023-01-17T18:25:43.101Z,99043.13
2023-01-17T18:29:11.926Z,99048.94
2023-01-17T18:31:38.463Z,99061.25
2023-01-17T18:34:07.961Z,99059.63
2023-01-17T18:36:34.792Z,99065.78
2023-01-17T18:39:02.466Z,99064.16
2023-01-17T18:41:31.261Z,99071.91
2023-01-17T18:43:58.226Z,99070.31
2023-01-17T18:46:28.154Z,99071.91
2023-01-17T18:48:58.015Z,99077.75
2023-01-17T18:51:24.902Z,99068.13
2023-01-17T18:53:54.011Z,99080.69
2023-01-17T18:56:22.230Z,99077.75
2023-01-17T18:58:50.571Z,99078.31
2023-01-17T19:01:25.673Z,99078.38
2023-01-17T19:03:57.167Z,99078.38
2023-01-17T21:26:04.065Z,99145.59
2023-01-17T21:28:33.201Z,99142.38
2023-01-17T21:31:00.879Z,99144.00
2023-01-17T21:33:29.422Z,99147.44
2023-01-17T21:36:05.324Z,99143.16
2023-01-17T21:38:32.778Z,99143.41
2023-01-17T21:41:05.373Z,99145.84
2023-01-17T21:43:32.795Z,99144.56
2023-01-17T21:46:03.288Z,99143.50
2023-01-17T21:48:40.623Z,99139.22
2023-01-17T21:51:08.127Z,99145.13
2023-01-17T21:53:39.883Z,99145.91
2023-01-17T21:56:30.993Z,99145.13
2023-01-17T21:59:04.183Z,99136.56
2023-01-17T22:01:33.216Z,99135.72
2023-01-17T22:04:03.565Z,99139.44
2023-01-17T22:06:34.404Z,99140.28
2023-01-17T22:09:15.018Z,99142.38
2023-01-17T22:11:42.556Z,99141.81
2023-01-17T22:14:26.308Z,99155.13
2023-01-17T22:17:01.805Z,99153.50
2023-01-17T22:19:36.459Z,99145.78
2023-01-17T22:22:03.101Z,99155.63
2023-01-17T22:24:29.499Z,99150.75
2023-01-17T22:26:55.924Z,99162.25
2023-01-17T22:29:23.410Z,99158.75
2023-01-17T22:31:49.864Z,99168.84
2023-01-17T22:34:27.692Z,99169.34
2023-01-17T22:36:54.132Z,99175.72
2023-01-17T22:39:20.743Z,99172.72
2023-01-17T22:41:47.113Z,99171.91
2023-01-17T22:44:17.906Z,99177.25
2023-01-17T22:46:50.656Z,99175.31
2023-01-17T22:49:17.997Z,99187.00
2023-01-17T22:51:52.684Z,99179.81
2023-01-17T22:54:27.163Z,99179.81
2023-01-17T22:56:55.809Z,99183.78
2023-01-17T22:59:22.179Z,99176.84
2023-01-17T23:01:50.740Z,99180.78
2023-01-17T23:04:17.292Z,99167.44
2023-01-17T23:06:43.682Z,99171.72
2023-01-17T23:09:43.164Z,99170.13
2023-01-17T23:12:15.715Z,99168.50
2023-01-17T23:15:03.669Z,99172.22
2023-01-17T23:17:56.929Z,99174.31
2023-01-17T23:20:23.328Z,99170.28
2023-01-17T23:23:07.107Z,99174.78
2023-01-17T23:25:38.448Z,99173.16
2023-01-17T23:28:10.856Z,99161.38
2023-01-17T23:30:40.307Z,99170.41
2023-01-17T23:33:08.852Z,99166.94
2023-01-17T23:35:43.795Z,99170.88
2023-01-17T23:38:29.363Z,99178.31
2023-01-17T23:41:26.515Z,99175.88
2023-01-17T23:43:54.825Z,99179.03
2023-01-17T23:46:30.212Z,99176.84
2023-01-17T23:48:56.682Z,99174.44
2023-01-17T23:51:25.135Z,99167.47
2023-01-17T23:54:05.115Z,99181.84
2023-01-17T23:56:41.824Z,99183.94
2023-01-17T23:59:11.365Z,99186.81
